Time;durP1;ratioP1;P1;durP2;ratioP2;P2;SDS_P1;SDS_P2;PMS_P1;PMS_P2;Temp;Humidity;BMP_temperature;BMP_pressure;BME280_temperature;BME280_humidity;BME280_pressure;Samples;Min_cycle;Max_cycle;Signal;HPM_P1;HPM_P2
2024/02/03 00:00:10;;;;;;;30.90;17.65;;;;;;;4.13;100.00;99631.76;1790749;78;25441;-46
2024/02/03 00:02:40;;;;;;;;;;;;;;;4.15;100.00;99625.58;1805401;78;26261;-49
2024/02/03 00:05:08;;;;;;;31.05;16.97;;;;;;;4.18;100.00;99629.58;1793922;78;25331;-47
2024/02/03 00:07:36;;;;;;;32.08;17.45;;;;;;;4.19;100.00;99620.45;1781842;79;25457;-48
2024/02/03 00:10:06;;;;;;;26.80;17.67;;;;;;;4.20;100.00;99633.55;1804859;78;26478;-47
2024/02/03 00:12:33;;;;;;;27.73;16.97;;;;;;;4.23;100.00;99614.81;1797201;78;25542;-46
2024/02/03 00:15:01;;;;;;;31.20;17.23;;;;;;;4.25;100.00;99634.05;1781144;79;28117;-46
2024/02/03 00:17:29;;;;;;;26.25;15.83;;;;;;;4.28;100.00;99625.47;1814126;78;25583;-45
2024/02/03 00:19:58;;;;;;;26.05;15.13;;;;;;;4.29;100.00;99645.27;1812510;78;25608;-47
2024/02/03 00:22:25;;;;;;;32.35;16.05;;;;;;;4.34;100.00;99624.31;1793439;79;25449;-45
2024/02/03 00:24:53;;;;;;;29.75;14.83;;;;;;;4.36;100.00;99636.91;1795375;79;25636;-46
2024/02/03 00:27:20;;;;;;;28.42;15.45;;;;;;;4.38;100.00;99621.34;1787156;78;27377;-48
2024/02/03 00:29:50;;;;;;;29.48;15.65;;;;;;;4.40;100.00;99617.84;1806051;78;25571;-48
2024/02/03 00:32:16;;;;;;;27.37;15.10;;;;;;;4.42;100.00;99612.98;1797399;79;25562;-46
2024/02/03 00:34:44;;;;;;;24.92;14.45;;;;;;;4.46;100.00;99609.20;1790092;78;25592;-47
2024/02/03 00:37:11;;;;;;;22.77;15.50;;;;;;;4.47;100.00;99607.58;1793578;78;25462;-45
2024/02/03 00:39:41;;;;;;;22.82;14.68;;;;;;;4.51;100.00;99613.16;1792057;78;27443;-44
2024/02/03 00:42:09;;;;;;;25.40;13.98;;;;;;;4.53;100.00;99612.36;1777508;79;26161;-44
2024/02/03 00:44:38;;;;;;;24.32;14.83;;;;;;;4.56;100.00;99633.73;1777891;79;25338;-44
2024/02/03 00:47:06;;;;;;;22.17;13.48;;;;;;;4.58;100.00;99619.52;1791519;79;25897;-46
2024/02/03 00:49:33;;;;;;;23.83;14.73;;;;;;;4.59;100.00;99605.84;1793638;79;25417;-44
2024/02/03 00:52:00;;;;;;;19.70;12.73;;;;;;;4.61;100.00;99598.86;1780025;79;27353;-44
2024/02/03 00:54:27;;;;;;;21.37;13.60;;;;;;;4.63;100.00;99589.47;1756396;80;25483;-44
2024/02/03 00:56:56;;;;;;;23.55;12.68;;;;;;;4.64;100.00;99585.69;1721896;82;25448;-44
2024/02/03 00:59:23;;;;;;;;;;;;;;;4.66;100.00;99582.73;1735797;81;25854;-43
2024/02/03 01:01:50;;;;;;;18.70;11.38;;;;;;;4.69;100.00;99584.84;1738134;82;25468;-44
2024/02/03 01:04:19;;;;;;;17.45;11.78;;;;;;;4.70;100.00;99574.39;1738794;82;27701;-43
2024/02/03 01:06:47;;;;;;;24.05;11.80;;;;;;;4.72;100.00;99580.80;1738796;82;25838;-42
2024/02/03 01:09:17;;;;;;;19.12;12.63;;;;;;;4.75;100.00;99594.94;1738892;82;25639;-43
2024/02/03 01:11:42;;;;;;;19.10;11.43;;;;;;;4.76;100.00;99586.62;1738549;82;26119;-44
2024/02/03 01:14:10;;;;;;;22.80;11.40;;;;;;;4.78;100.00;99578.30;1731444;82;25411;-44
2024/02/03 01:16:36;;;;;;;16.85;11.08;;;;;;;4.78;100.00;99575.06;1738849;82;28346;-45
2024/02/03 01:19:06;;;;;;;16.90;11.25;;;;;;;4.81;100.00;99577.17;1738798;82;25412;-44
2024/02/03 01:21:34;;;;;;;16.77;11.40;;;;;;;4.82;100.00;99557.34;1739034;82;32779;-46
2024/02/03 01:24:00;;;;;;;19.30;10.70;;;;;;;4.84;100.00;99555.17;1735015;82;25568;-44
2024/02/03 01:26:27;;;;;;;17.52;10.43;;;;;;;4.85;100.00;99571.52;1738925;82;25457;-44
2024/02/03 01:28:56;;;;;;;17.73;11.75;;;;;;;4.88;100.00;99560.75;1738847;82;28030;-45
2024/02/03 01:31:23;;;;;;;13.13;10.18;;;;;;;4.90;100.00;99559.13;1738766;82;25662;-45
2024/02/03 01:33:50;;;;;;;16.57;10.98;;;;;;;4.92;100.00;99559.10;1738829;82;25564;-44
2024/02/03 01:36:16;;;;;;;16.75;10.60;;;;;;;4.95;100.00;99549.12;1738816;82;25450;-44
2024/02/03 01:38:48;;;;;;;17.32;10.58;;;;;;;4.96;100.00;99567.36;1738988;82;25647;-46
2024/02/03 01:41:11;;;;;;;14.70;11.33;;;;;;;4.97;100.00;99567.07;1738155;82;28131;-45
2024/02/03 01:43:38;;;;;;;17.23;11.50;;;;;;;4.98;100.00;99558.48;1738861;82;25611;-45
2024/02/03 01:46:06;;;;;;;15.53;10.95;;;;;;;5.00;100.00;99564.34;1738789;82;25501;-44
2024/02/03 01:48:34;;;;;;;15.18;10.15;;;;;;;5.01;100.00;99559.25;1738820;82;25664;-45
2024/02/03 01:51:05;;;;;;;16.13;10.53;;;;;;;5.03;100.00;99560.53;1739159;82;25612;-45
2024/02/03 01:53:36;;;;;;;16.67;10.48;;;;;;;5.05;100.00;99548.19;1738385;82;27327;-44
2024/02/03 01:56:06;;;;;;;16.07;11.48;;;;;;;5.07;100.00;99551.92;1795916;79;25736;-44
2024/02/03 01:58:36;;;;;;;15.00;10.08;;;;;;;5.08;100.00;99556.99;1780122;79;25754;-45
2024/02/03 02:01:05;;;;;;;16.17;10.32;;;;;;;5.10;100.00;99553.47;1781841;79;25578;-44
2024/02/03 02:03:34;;;;;;;18.37;11.15;;;;;;;5.12;100.00;99560.67;1793385;79;25398;-45
2024/02/03 02:06:05;;;;;;;17.73;11.33;;;;;;;5.14;100.00;99549.14;1790682;78;27770;-45
2024/02/03 02:08:38;;;;;;;15.98;11.05;;;;;;;5.16;100.00;99558.20;1798174;78;25415;-46
2024/02/03 02:11:07;;;;;;;14.47;9.45;;;;;;;5.18;100.00;99556.84;1806920;78;25537;-48
2024/02/03 02:13:35;;;;;;;17.07;10.40;;;;;;;5.18;100.00;99551.48;1802279;78;25692;-47
2024/02/03 02:16:06;;;;;;;16.82;9.93;;;;;;;5.20;100.00;99551.98;1792642;78;25836;-45
2024/02/03 02:18:34;;;;;;;16.25;11.12;;;;;;;5.22;100.00;99549.80;1795782;78;27319;-44
2024/02/03 02:21:00;;;;;;;14.70;10.82;;;;;;;5.24;100.00;99551.67;1788724;78;25837;-44
2024/02/03 02:23:28;;;;;;;14.60;11.22;;;;;;;5.27;100.00;99555.64;1797029;79;25489;-45
2024/02/03 02:25:57;;;;;;;15.38;11.30;;;;;;;5.28;100.00;99557.25;1796938;78;25509;-46
2024/02/03 02:28:25;;;;;;;14.95;11.28;;;;;;;5.30;100.00;99549.70;1793697;78;25438;-45
2024/02/03 02:30:53;;;;;;;15.08;10.48;;;;;;;5.31;100.00;99555.33;1795200;79;27722;-45
2024/02/03 02:33:22;;;;;;;17.35;10.70;;;;;;;5.34;100.00;99555.27;1803403;78;25524;-45
2024/02/03 02:35:50;;;;;;;14.05;10.05;;;;;;;5.35;100.00;99546.94;1796319;78;25424;-45
2024/02/03 02:38:19;;;;;;;16.85;11.57;;;;;;;5.37;100.00;99552.80;1802290;78;25447;-45
2024/02/03 02:40:47;;;;;;;15.25;10.68;;;;;;;5.41;100.00;99546.30;1786217;79;25793;-45
2024/02/03 02:43:14;;;;;;;14.43;10.50;;;;;;;5.42;100.00;99551.37;1791556;78;28579;-46
2024/02/03 02:45:43;;;;;;;18.73;11.50;;;;;;;5.44;100.00;99551.09;1783511;79;25824;-45
2024/02/03 02:48:10;;;;;;;15.45;11.68;;;;;;;5.47;100.00;99543.02;1794193;78;25470;-45
2024/02/03 02:50:38;;;;;;;16.85;12.78;;;;;;;5.49;100.00;99534.13;1762909;80;25465;-44
2024/02/03 02:53:07;;;;;;;17.87;13.15;;;;;;;5.50;100.00;99527.13;1730631;82;25942;-45
2024/02/03 02:55:34;;;;;;;19.90;12.45;;;;;;;5.52;100.00;99521.47;1729012;82;27707;-45
2024/02/03 02:58:01;;;;;;;18.62;12.28;;;;;;;5.54;100.00;99520.63;1764413;80;25604;-45
2024/02/03 03:00:29;;;;;;;14.75;10.82;;;;;;;5.55;100.00;99512.81;1760996;80;25466;-47
2024/02/03 03:02:55;;;;;;;16.85;11.65;;;;;;;5.56;100.00;99517.10;1763195;80;25596;-46
2024/02/03 03:05:22;;;;;;;14.55;10.43;;;;;;;5.58;100.00;99528.33;1761615;80;25413;-47
2024/02/03 03:07:48;;;;;;;13.80;9.53;;;;;;;5.60;100.00;99520.78;1753667;80;27693;-46
2024/02/03 03:10:18;;;;;;;15.18;10.68;;;;;;;5.61;100.00;99520.48;1771532;80;25389;-46
2024/02/03 03:12:45;;;;;;;12.25;9.10;;;;;;;5.64;100.00;99523.70;1757599;80;25519;-44
2024/02/03 03:15:12;;;;;;;13.05;9.95;;;;;;;5.66;100.00;99514.25;1764604;80;25588;-45
2024/02/03 03:17:39;;;;;;;13.43;10.15;;;;;;;5.68;100.00;99511.27;1762179;80;25548;-45
2024/02/03 03:20:10;;;;;;;12.60;9.78;;;;;;;5.69;100.00;99518.23;1762854;80;27265;-46
2024/02/03 03:22:38;;;;;;;14.18;9.83;;;;;;;5.70;100.00;99511.20;1771690;80;25664;-46
2024/02/03 03:25:07;;;;;;;13.68;9.68;;;;;;;5.72;100.00;99518.44;1766606;80;25584;-47
2024/02/03 03:27:37;;;;;;;14.25;9.95;;;;;;;5.74;100.00;99513.57;1751935;80;25749;-47
2024/02/03 03:30:07;;;;;;;13.50;8.73;;;;;;;5.74;100.00;99505.52;1758910;80;25600;-48
2024/02/03 03:32:35;;;;;;;10.78;8.48;;;;;;;5.76;100.00;99510.04;1750145;80;27319;-44
2024/02/03 03:35:04;;;;;;;13.18;8.53;;;;;;;5.78;100.00;99508.41;1757003;80;25703;-46
2024/02/03 03:37:32;;;;;;;12.37;9.33;;;;;;;5.79;100.00;99501.95;1768625;80;25667;-45
2024/02/03 03:39:59;;;;;;;10.03;8.10;;;;;;;5.81;100.00;99507.81;1775234;80;25602;-44
2024/02/03 03:42:27;;;;;;;11.30;8.23;;;;;;;5.82;100.00;99516.10;1762511;80;25423;-46
2024/02/03 03:44:54;;;;;;;9.40;7.33;;;;;;;5.84;100.00;99513.13;1757723;80;27396;-45
2024/02/03 03:47:22;;;;;;;10.50;8.23;;;;;;;5.84;100.00;99496.50;1766549;80;25318;-46
2024/02/03 03:49:49;;;;;;;11.38;7.42;;;;;;;5.86;100.00;99494.86;1747272;80;25404;-47
2024/02/03 03:52:16;;;;;;;11.10;7.97;;;;;;;5.86;100.00;99495.65;1761893;80;25798;-47
2024/02/03 03:54:44;;;;;;;8.73;6.92;;;;;;;5.87;100.00;99488.38;1755814;80;25459;-45
2024/02/03 03:57:11;;;;;;;10.20;7.10;;;;;;;5.88;100.00;99489.98;1768587;80;28006;-49
2024/02/03 03:59:37;;;;;;;10.28;7.03;;;;;;;5.89;100.00;99491.03;1770245;80;25382;-47
2024/02/03 04:02:05;;;;;;;9.50;6.70;;;;;;;5.91;100.00;99483.48;1761988;80;25384;-47
2024/02/03 04:04:32;;;;;;;7.58;6.45;;;;;;;5.92;100.00;99504.39;1761930;80;26319;-48
2024/02/03 04:06:58;;;;;;;6.67;5.70;;;;;;;5.93;100.00;99483.97;1771828;80;25585;-48
2024/02/03 04:09:25;;;;;;;7.45;6.15;;;;;;;5.94;100.00;99464.09;1758418;80;29436;-47
2024/02/03 04:11:51;;;;;;;8.43;5.97;;;;;;;5.94;100.00;99470.81;1759019;80;25587;-46
2024/02/03 04:14:20;;;;;;;8.20;6.40;;;;;;;5.96;100.00;99476.70;1762298;80;25552;-47
2024/02/03 04:16:46;;;;;;;7.53;6.03;;;;;;;5.97;100.00;99471.56;1773926;80;25669;-47
2024/02/03 04:19:13;;;;;;;7.78;6.00;;;;;;;5.98;100.00;99470.48;1770138;80;25614;-48
2024/02/03 04:21:39;;;;;;;6.75;5.60;;;;;;;6.00;100.00;99479.58;1755159;80;27130;-47
2024/02/03 04:24:07;;;;;;;7.85;6.17;;;;;;;6.01;100.00;99481.18;1759033;80;26710;-47
2024/02/03 04:26:36;;;;;;;8.05;5.60;;;;;;;6.02;100.00;99484.09;1757507;80;25507;-49
2024/02/03 04:29:02;;;;;;;8.88;5.45;;;;;;;6.03;100.00;99484.36;1743704;81;25668;-49
2024/02/03 04:31:29;;;;;;;6.47;4.92;;;;;;;6.05;100.00;99491.56;1765771;80;25437;-47
2024/02/03 04:33:59;;;;;;;8.13;5.92;;;;;;;6.07;100.00;99506.03;1760593;80;27197;-47
2024/02/03 04:36:27;;;;;;;7.03;5.75;;;;;;;6.07;100.00;99498.77;1756708;80;25631;-47
2024/02/03 04:38:54;;;;;;;8.33;5.65;;;;;;;6.09;100.00;99505.97;1755837;80;25872;-47
2024/02/03 04:41:24;;;;;;;6.20;5.58;;;;;;;6.11;100.00;99505.15;1765546;81;26686;-46
2024/02/03 04:43:52;;;;;;;7.70;5.97;;;;;;;6.12;100.00;99493.30;1773525;80;25527;-49
2024/02/03 04:46:19;;;;;;;7.58;5.10;;;;;;;6.13;100.00;99490.05;1765031;80;27345;-47
2024/02/03 04:48:47;;;;;;;7.92;5.40;;;;;;;6.15;100.00;99498.08;1758180;80;25733;-48
2024/02/03 04:51:16;;;;;;;7.58;5.60;;;;;;;6.17;100.00;99494.54;1754932;80;25796;-47
2024/02/03 04:53:42;;;;;;;7.00;5.25;;;;;;;6.19;100.00;99489.42;1766814;80;25698;-47
2024/02/03 04:56:12;;;;;;;6.72;4.72;;;;;;;6.20;100.00;99477.05;1767457;80;25792;-47
2024/02/03 04:58:43;;;;;;;6.08;5.03;;;;;;;6.21;100.00;99478.62;1775597;80;27189;-47
2024/02/03 05:01:10;;;;;;;8.33;5.20;;;;;;;6.25;100.00;99485.53;1769297;80;25540;-49
2024/02/03 05:03:37;;;;;;;6.65;5.20;;;;;;;6.25;100.00;99474.78;1755661;80;25947;-46
2024/02/03 05:06:07;;;;;;;5.75;5.03;;;;;;;6.27;100.00;99487.39;1759133;80;25669;-46
2024/02/03 05:08:36;;;;;;;5.80;4.92;;;;;;;6.29;100.00;99474.45;1766760;80;25607;-47
2024/02/03 05:11:04;;;;;;;7.08;5.08;;;;;;;6.30;100.00;99480.87;1764831;80;27307;-46
2024/02/03 05:13:30;;;;;;;7.92;5.53;;;;;;;6.32;100.00;99475.20;1771471;80;25557;-46
2024/02/03 05:15:57;;;;;;;8.20;5.70;;;;;;;6.33;100.00;99471.41;1755066;80;25597;-47
2024/02/03 05:18:23;;;;;;;9.10;6.30;;;;;;;6.35;100.00;99471.36;1752306;81;26287;-48
2024/02/03 05:20:50;;;;;;;7.42;5.25;;;;;;;6.36;100.00;99466.78;1763403;80;25457;-47
2024/02/03 05:23:19;;;;;;;6.15;4.90;;;;;;;6.37;100.00;99479.12;1760617;80;28570;-49
2024/02/03 05:25:46;;;;;;;7.37;5.45;;;;;;;6.39;100.00;99453.31;1764690;80;25439;-47
2024/02/03 05:28:13;;;;;;;9.10;5.78;;;;;;;6.40;100.00;99460.25;1777124;80;25433;-47
2024/02/03 05:30:40;;;;;;;8.43;5.55;;;;;;;6.42;100.00;99467.45;1764676;80;25778;-48
2024/02/03 05:33:06;;;;;;;7.75;5.35;;;;;;;6.43;100.00;99473.88;1771279;80;25863;-47
2024/02/03 05:35:33;;;;;;;7.15;5.53;;;;;;;6.45;100.00;99488.35;1751688;80;28008;-46
2024/02/03 05:38:01;;;;;;;8.98;5.60;;;;;;;6.47;100.00;99491.52;1750918;80;25609;-47
2024/02/03 05:40:28;;;;;;;8.55;5.53;;;;;;;6.49;100.00;99497.42;1759034;80;25740;-46
2024/02/03 05:42:54;;;;;;;6.00;4.87;;;;;;;6.50;100.00;99494.44;1747819;80;25663;-46
2024/02/03 05:45:22;;;;;;;7.92;5.72;;;;;;;6.52;100.00;99492.77;1757532;80;25517;-46
2024/02/03 05:47:51;;;;;;;6.30;4.97;;;;;;;6.53;100.00;99507.80;1758420;80;27687;-46
2024/02/03 05:50:19;;;;;;;5.65;5.10;;;;;;;6.54;100.00;99498.66;1766230;80;25523;-46
2024/02/03 05:52:48;;;;;;;6.97;4.87;;;;;;;6.56;100.00;99499.14;1755495;80;25469;-47
2024/02/03 05:55:16;;;;;;;9.35;5.65;;;;;;;6.60;100.00;99506.05;1761877;80;26283;-47
2024/02/03 05:57:52;;;;;;;7.30;5.28;;;;;;;6.61;100.00;99509.00;1758529;80;25406;-47
2024/02/03 06:00:21;;;;;;;7.92;5.65;;;;;;;6.63;100.00;99513.52;1752703;80;27291;-49
2024/02/03 06:02:50;;;;;;;;;;;;;;;6.64;100.00;99505.16;1774797;80;25850;-46
2024/02/03 06:05:17;;;;;;;8.40;5.45;;;;;;;6.67;100.00;99513.14;1766869;80;25576;-46
2024/02/03 06:07:45;;;;;;;6.28;5.00;;;;;;;6.66;100.00;99501.61;1775376;80;26281;-47
2024/02/03 06:10:13;;;;;;;7.72;5.45;;;;;;;6.68;100.00;99496.72;1764203;80;25598;-47
2024/02/03 06:12:42;;;;;;;5.83;4.85;;;;;;;6.70;100.00;99505.27;1757724;80;27671;-49
2024/02/03 06:15:10;;;;;;;5.97;5.08;;;;;;;6.71;100.00;99514.94;1766900;80;25596;-48
2024/02/03 06:17:37;;;;;;;6.95;4.85;;;;;;;6.74;100.00;99512.17;1767701;80;25556;-45
2024/02/03 06:20:07;;;;;;;8.98;5.65;;;;;;;6.77;100.00;99516.95;1758701;80;25812;-46
2024/02/03 06:22:38;;;;;;;6.10;4.28;;;;;;;6.79;100.00;99503.22;1756401;80;25815;-46
2024/02/03 06:25:07;;;;;;;5.83;5.20;;;;;;;6.82;100.00;99503.96;1765987;80;27531;-45
2024/02/03 06:27:33;;;;;;;6.55;4.85;;;;;;;6.83;100.00;99489.44;1756830;80;25455;-46
2024/02/03 06:30:00;;;;;;;5.15;4.00;;;;;;;6.87;100.00;99511.91;1747876;80;25614;-49
2024/02/03 06:32:26;;;;;;;5.58;4.15;;;;;;;6.89;100.00;99505.67;1776029;80;25978;-47
2024/02/03 06:34:53;;;;;;;4.70;3.90;;;;;;;6.91;100.00;99508.85;1758889;80;25382;-45
2024/02/03 06:37:19;;;;;;;4.58;4.08;;;;;;;6.94;100.00;99504.77;1757891;80;27380;-47
2024/02/03 06:39:48;;;;;;;5.15;3.90;;;;;;;6.96;100.00;99492.60;1752168;80;25387;-47
2024/02/03 06:42:14;;;;;;;5.40;3.90;;;;;;;6.98;100.00;99498.50;1744277;80;25863;-47
2024/02/03 06:44:41;;;;;;;4.45;3.52;;;;;;;7.02;100.00;99505.41;1757079;80;25713;-49
2024/02/03 06:47:07;;;;;;;7.15;3.70;;;;;;;7.04;100.00;99514.74;1765352;80;25880;-46
2024/02/03 06:49:33;;;;;;;4.53;3.52;;;;;;;7.08;100.00;99516.27;1749382;80;27446;-49
2024/02/03 06:52:00;;;;;;;4.05;3.40;;;;;;;7.10;100.00;99525.64;1763132;80;25777;-46
2024/02/03 06:54:31;;;;;;;3.42;3.12;;;;;;;7.15;100.00;99542.22;1760110;80;25416;-45
2024/02/03 06:56:59;;;;;;;7.70;3.70;;;;;;;7.18;100.00;99522.75;1765436;80;25652;-46
2024/02/03 06:59:25;;;;;;;5.53;3.05;;;;;;;7.21;100.00;99524.05;1758358;80;25377;-47
2024/02/03 07:01:54;;;;;;;4.60;3.95;;;;;;;7.24;100.00;99523.45;1755990;80;28046;-49
2024/02/03 07:04:20;;;;;;;5.15;2.75;;;;;;;7.28;100.00;99512.31;1751613;80;25599;-46
2024/02/03 07:06:47;;;;;;;4.92;2.85;;;;;;;7.31;100.00;99511.70;1763076;80;25378;-45
2024/02/03 07:09:14;;;;;;;4.00;3.50;;;;;;;7.36;100.00;99508.11;1755021;80;25634;-46
2024/02/03 07:11:40;;;;;;;3.50;3.15;;;;;;;7.38;100.00;99519.35;1756168;80;25577;-46
2024/02/03 07:14:06;;;;;;;4.55;3.05;;;;;;;7.40;100.00;99512.55;1761394;80;27434;-46
2024/02/03 07:16:33;;;;;;;8.05;3.35;;;;;;;7.42;100.00;99510.38;1756225;80;25606;-46
2024/02/03 07:19:04;;;;;;;5.65;3.67;;;;;;;7.44;100.00;99523.48;1778984;80;25452;-47
2024/02/03 07:21:32;;;;;;;7.70;4.17;;;;;;;7.45;100.00;99532.61;1752097;80;26310;-47
2024/02/03 07:23:59;;;;;;;5.17;4.30;;;;;;;7.44;100.00;99527.52;1764052;80;25515;-46
2024/02/03 07:26:28;;;;;;;6.30;4.45;;;;;;;7.46;100.00;99519.41;1758197;80;27918;-47
2024/02/03 07:28:54;;;;;;;5.58;4.42;;;;;;;7.47;100.00;99545.23;1765920;80;25639;-48
2024/02/03 07:31:29;;;;;;;5.78;5.15;;;;;;;7.47;100.00;99542.53;1753466;81;25547;-48
2024/02/03 07:33:57;;;;;;;5.97;4.92;;;;;;;7.46;100.00;99535.55;1756485;80;26002;-46
2024/02/03 07:36:26;;;;;;;7.37;5.45;;;;;;;7.46;100.00;99547.66;1747721;80;25883;-46
2024/02/03 07:38:52;;;;;;;6.85;5.78;;;;;;;7.47;100.00;99541.72;1770053;80;28494;-47
2024/02/03 07:41:19;;;;;;;7.55;6.35;;;;;;;7.48;100.00;99549.48;1768160;80;25505;-47
2024/02/03 07:43:47;;;;;;;5.80;4.95;;;;;;;7.51;100.00;99554.01;1752833;80;25548;-46
2024/02/03 07:46:15;;;;;;;10.55;5.75;;;;;;;7.51;100.00;99543.24;1751478;80;25739;-48
2024/02/03 07:48:44;;;;;;;8.25;5.95;;;;;;;7.52;100.00;99550.23;1760423;80;25198;-48
2024/02/03 07:51:13;;;;;;;6.87;6.00;;;;;;;7.52;100.00;99546.19;1764596;80;27330;-46
2024/02/03 07:53:41;;;;;;;6.43;5.77;;;;;;;7.54;100.00;99543.98;1757261;80;25695;-48
2024/02/03 07:56:08;;;;;;;10.23;6.83;;;;;;;7.53;100.00;99549.92;1770988;80;25520;-47
2024/02/03 07:58:34;;;;;;;7.83;6.65;;;;;;;7.53;100.00;99559.34;1747217;80;25457;-46
2024/02/03 08:01:04;;;;;;;11.10;7.28;;;;;;;7.53;100.00;99548.58;1758193;80;25527;-50
2024/02/03 08:03:32;;;;;;;8.33;6.80;;;;;;;7.53;100.00;99549.92;1751311;80;29190;-48
2024/02/03 08:06:00;;;;;;;7.47;6.42;;;;;;;7.53;100.00;99554.52;1771229;80;25986;-46
2024/02/03 08:08:29;;;;;;;10.45;7.22;;;;;;;7.52;100.00;99552.36;1749677;80;25590;-46
2024/02/03 08:10:57;;;;;;;11.18;6.92;;;;;;;7.50;100.00;99551.09;1752551;80;25696;-46
2024/02/03 08:13:24;;;;;;;11.53;7.95;;;;;;;7.51;100.00;99561.55;1760223;80;25442;-46
2024/02/03 08:15:50;;;;;;;10.65;8.03;;;;;;;7.50;100.00;99563.98;1768385;80;27715;-47
2024/02/03 08:18:19;;;;;;;14.53;8.93;;;;;;;7.49;100.00;99574.49;1760707;80;25414;-46
2024/02/03 08:20:48;;;;;;;14.70;9.58;;;;;;;7.43;100.00;99565.75;1772545;80;25528;-47
2024/02/03 08:23:15;;;;;;;11.10;9.35;;;;;;;7.45;100.00;99571.63;1777429;80;25577;-47
2024/02/03 08:25:43;;;;;;;12.33;9.95;;;;;;;7.43;100.00;99556.34;1747515;80;25592;-47
2024/02/03 08:28:12;;;;;;;15.53;10.65;;;;;;;7.43;100.00;99569.80;1760258;81;27940;-46
2024/02/03 08:30:41;;;;;;;13.62;10.82;;;;;;;7.43;100.00;99563.62;1749294;80;25641;-46
2024/02/03 08:33:09;;;;;;;13.67;10.93;;;;;;;7.43;100.00;99569.80;1757868;80;25519;-46
2024/02/03 08:35:38;;;;;;;14.30;10.53;;;;;;;7.41;100.00;99573.34;1767579;80;25437;-46
2024/02/03 08:38:06;;;;;;;16.42;11.43;;;;;;;7.43;100.00;99581.90;1769400;80;25656;-47
2024/02/03 08:40:34;;;;;;;17.50;12.58;;;;;;;7.44;100.00;99581.34;1753134;80;27813;-49
2024/02/03 08:43:01;;;;;;;15.18;11.85;;;;;;;7.44;100.00;99580.00;1753775;80;25458;-46
2024/02/03 08:45:28;;;;;;;18.73;12.73;;;;;;;7.44;100.00;99578.65;1774852;80;25471;-47
2024/02/03 08:47:56;;;;;;;14.53;11.83;;;;;;;7.44;100.00;99575.43;1761136;80;25430;-47
2024/02/03 08:50:24;;;;;;;19.10;12.33;;;;;;;7.46;100.00;99569.75;1765118;80;25535;-46
2024/02/03 08:52:50;;;;;;;16.82;12.40;;;;;;;7.46;100.00;99571.88;1769353;80;28244;-46
2024/02/03 08:55:23;;;;;;;18.82;12.50;;;;;;;7.47;100.00;99576.17;1762156;80;26237;-46
2024/02/03 08:57:55;;;;;;;18.62;12.05;;;;;;;7.49;100.00;99574.49;1764728;80;25543;-47
2024/02/03 09:00:22;;;;;;;16.77;12.20;;;;;;;7.52;100.00;99579.83;1750569;80;26006;-47
2024/02/03 09:02:48;;;;;;;18.30;12.15;;;;;;;7.53;100.00;99578.74;1748716;80;25801;-46
2024/02/03 09:05:19;;;;;;;14.63;11.45;;;;;;;7.56;100.00;99586.18;1754388;80;27419;-45
2024/02/03 09:07:49;;;;;;;15.00;11.30;;;;;;;7.56;100.00;99574.88;1746100;80;26292;-48
2024/02/03 09:10:18;;;;;;;16.27;10.63;;;;;;;7.59;100.00;99584.23;1755975;80;25694;-47
2024/02/03 09:12:46;;;;;;;13.80;11.03;;;;;;;7.62;100.00;99581.72;1759157;81;25808;-45
2024/02/03 09:15:15;;;;;;;13.62;10.93;;;;;;;7.64;100.00;99570.64;1765789;80;25464;-46
2024/02/03 09:17:41;;;;;;;13.88;10.25;;;;;;;7.69;100.00;99581.29;1763033;80;28619;-46
2024/02/03 09:20:12;;;;;;;13.43;10.03;;;;;;;7.71;100.00;99580.42;1757152;80;25486;-44
2024/02/03 09:22:42;;;;;;;12.93;9.15;;;;;;;7.75;100.00;99573.91;1762895;80;25416;-47
2024/02/03 09:25:11;;;;;;;14.13;9.23;;;;;;;7.79;100.00;99562.75;1774988;80;25472;-46
2024/02/03 09:27:38;;;;;;;13.50;8.73;;;;;;;7.84;100.00;99561.27;1757916;80;25769;-49
2024/02/03 09:30:09;;;;;;;12.47;8.83;;;;;;;7.91;100.00;99541.43;1765324;80;27395;-46
2024/02/03 09:32:36;;;;;;;10.72;8.10;;;;;;;7.99;100.00;99555.50;1746920;80;25768;-47
2024/02/03 09:35:10;;;;;;;9.60;8.08;;;;;;;8.11;100.00;99564.91;1762507;81;25620;-44
2024/02/03 09:37:36;;;;;;;12.73;8.55;;;;;;;8.18;100.00;99555.26;1747843;80;25420;-46
2024/02/03 09:40:08;;;;;;;8.95;7.55;;;;;;;8.28;100.00;99559.58;1773792;80;25433;-46
2024/02/03 09:42:37;;;;;;;10.72;7.85;;;;;;;8.36;100.00;99556.13;1775124;80;27919;-47
2024/02/03 09:45:10;;;;;;;10.90;7.67;;;;;;;8.41;100.00;99560.56;1764463;80;25554;-47
2024/02/03 09:47:40;;;;;;;10.93;7.67;;;;;;;8.45;100.00;99570.23;1751425;80;25549;-46
2024/02/03 09:50:13;;;;;;;14.10;8.70;;;;;;;8.49;100.00;99576.57;1770324;80;25602;-45
2024/02/03 09:52:42;;;;;;;;;;;;;;;8.50;100.00;99578.95;1780974;80;25546;-46
2024/02/03 09:55:10;;;;;;;13.65;8.48;;;;;;;8.50;100.00;99584.34;1754113;80;27478;-46
2024/02/03 09:57:40;;;;;;;13.00;7.87;;;;;;;8.50;100.00;99592.44;1753430;80;26413;-47
2024/02/03 10:00:12;;;;;;;11.80;7.30;;;;;;;8.51;100.00;99588.64;1766163;81;25687;-47
2024/02/03 10:02:40;;;;;;;9.60;7.00;;;;;;;8.49;100.00;99580.61;1761884;80;25533;-47
2024/02/03 10:05:10;;;;;;;10.80;7.45;;;;;;;8.54;100.00;99580.47;1765460;80;25614;-47
2024/02/03 10:07:40;;;;;;;9.63;6.53;;;;;;;8.53;100.00;99563.52;1759419;80;27288;-47
2024/02/03 10:10:10;;;;;;;;;;;;;;;8.56;100.00;99569.63;1770470;80;25771;-46
2024/02/03 10:12:39;;;;;;;9.58;6.28;;;;;;;8.60;100.00;99565.19;1762326;80;25426;-50
2024/02/03 10:15:10;;;;;;;8.85;6.95;;;;;;;8.64;100.00;99571.31;1779414;80;25958;-47
2024/02/03 10:17:37;;;;;;;8.73;6.20;;;;;;;8.67;100.00;99562.04;1766802;80;25434;-47
2024/02/03 10:20:08;;;;;;;8.95;6.90;;;;;;;8.71;100.00;99560.85;1769510;80;27972;-48
2024/02/03 10:22:36;;;;;;;9.85;5.97;;;;;;;8.69;100.00;99557.68;1751842;80;25542;-47
2024/02/03 10:25:14;;;;;;;6.55;5.60;;;;;;;8.73;100.00;99563.46;1757377;80;25430;-48
2024/02/03 10:27:42;;;;;;;7.05;5.35;;;;;;;8.75;100.00;99561.80;1754675;80;25869;-48
2024/02/03 10:30:19;;;;;;;9.35;6.20;;;;;;;8.77;100.00;99569.05;1766132;80;25687;-47
2024/02/03 10:32:49;;;;;;;7.45;5.62;;;;;;;8.76;100.00;99566.09;1761800;80;27315;-46
2024/02/03 10:35:20;;;;;;;9.80;5.60;;;;;;;8.76;100.00;99577.67;1759936;80;25374;-46
2024/02/03 10:37:47;;;;;;;7.12;5.10;;;;;;;8.76;100.00;99564.75;1758470;80;25603;-47
2024/02/03 10:40:16;;;;;;;8.33;5.72;;;;;;;8.75;100.00;99566.66;1764809;80;25674;-48
2024/02/03 10:42:46;;;;;;;8.03;5.60;;;;;;;8.75;100.00;99571.23;1756326;80;25951;-47
2024/02/03 10:45:17;;;;;;;8.90;5.90;;;;;;;8.78;100.00;99577.36;1764099;80;27312;-46
2024/02/03 10:47:49;;;;;;;8.48;5.67;;;;;;;8.79;100.00;99574.91;1757228;80;25584;-45
2024/02/03 10:50:22;;;;;;;7.17;5.60;;;;;;;8.81;100.00;99570.56;1771207;80;25544;-48
2024/02/03 10:52:51;;;;;;;6.53;5.37;;;;;;;8.81;100.00;99563.81;1757980;80;26068;-45
2024/02/03 10:55:22;;;;;;;7.78;6.12;;;;;;;8.81;100.00;99561.91;1772950;80;25571;-47
2024/02/03 10:57:52;;;;;;;6.87;5.78;;;;;;;8.83;100.00;99562.94;1757245;80;26859;-47
2024/02/03 11:00:21;;;;;;;9.58;5.85;;;;;;;8.85;100.00;99566.89;1760308;80;25364;-45
2024/02/03 11:02:58;;;;;;;7.62;5.60;;;;;;;8.87;100.00;99562.54;1765069;80;25539;-47
2024/02/03 11:05:30;;;;;;;7.78;5.58;;;;;;;8.88;100.00;99570.88;1755043;80;25888;-46
2024/02/03 11:08:11;;;;;;;8.53;5.53;;;;;;;8.89;100.00;99565.73;1769705;80;25614;-47
2024/02/03 11:10:40;;;;;;;7.30;5.20;;;;;;;8.91;100.00;99575.65;1768198;80;27416;-47
2024/02/03 11:13:30;;;;;;;8.40;5.67;;;;;;;8.92;100.00;99584.78;1755697;80;25442;-47
2024/02/03 11:16:04;;;;;;;7.95;5.12;;;;;;;8.93;100.00;99576.13;1766244;80;25697;-48
2024/02/03 11:18:38;;;;;;;8.33;5.30;;;;;;;8.95;100.00;99582.77;1769326;80;25455;-47
2024/02/03 11:21:08;;;;;;;5.78;4.83;;;;;;;8.96;100.00;99577.63;1759253;80;25395;-46
2024/02/03 11:23:36;;;;;;;27.27;17.57;;;;;;;8.99;100.00;99591.06;1763111;80;27345;-48
2024/02/03 11:26:05;;;;;;;20.88;14.78;;;;;;;9.01;100.00;99578.05;1764442;80;25464;-47
2024/02/03 11:28:35;;;;;;;6.72;5.33;;;;;;;9.07;100.00;99577.33;1768486;80;25383;-46
2024/02/03 11:31:09;;;;;;;5.40;4.60;;;;;;;9.12;100.00;99582.56;1770334;80;25887;-46